Time;durP1;ratioP1;P1;durP2;ratioP2;P2;SDS_P1;SDS_P2;PMS_P1;PMS_P2;Temp;Humidity;BMP_temperature;BMP_pressure;BME280_temperature;BME280_humidity;BME280_pressure;Samples;Min_cycle;Max_cycle;Signal;HPM_P1;HPM_P2
2022/04/18 00:00:05;;;;;;;;;;;13.40;29.20;;;;;;8382941;28;19924;-73
2022/04/18 00:04:06;;;;;;;;;;;13.20;29.10;;;;;;8421768;28;19957;-73
2022/04/18 00:08:08;;;;;;;;;;;13.10;29.10;;;;;;8377599;28;20370;-73
2022/04/18 00:12:10;;;;;;;;;;;13.10;29.20;;;;;;8389419;28;20427;-73
2022/04/18 00:16:12;;;;;;;;;;;13.00;29.30;;;;;;8387190;28;19920;-73
2022/04/18 00:20:14;;;;;;;;;;;12.90;29.30;;;;;;8387282;28;19928;-73
2022/04/18 00:24:17;;;;;;;;;;;12.70;29.20;;;;;;8397652;28;19921;-73
2022/04/18 00:28:18;;;;;;;;;;;12.60;29.30;;;;;;8392932;28;19928;-73
2022/04/18 00:32:20;;;;;;;;;;;12.50;29.40;;;;;;8397005;28;19920;-73
2022/04/18 00:36:22;;;;;;;;;;;12.40;29.50;;;;;;8385230;28;19920;-72
2022/04/18 00:40:23;;;;;;;;;;;12.40;29.70;;;;;;8391210;28;20248;-73
2022/04/18 00:44:25;;;;;;;;;;;12.30;29.70;;;;;;8389402;28;19920;-73
2022/04/18 00:48:26;;;;;;;;;;;12.30;29.90;;;;;;8392948;28;19920;-73
2022/04/18 00:52:29;;;;;;;;;;;12.20;29.60;;;;;;8387317;28;19939;-73
2022/04/18 00:56:30;;;;;;;;;;;12.10;29.70;;;;;;8402532;28;20169;-73
2022/04/18 01:00:32;;;;;;;;;;;12.00;29.70;;;;;;8393897;28;20396;-73
2022/04/18 01:04:34;;;;;;;;;;;12.00;29.80;;;;;;8394157;28;20360;-73
2022/04/18 01:08:35;;;;;;;;;;;11.90;29.80;;;;;;8394655;28;19920;-73
2022/04/18 01:12:38;;;;;;;;;;;11.80;29.90;;;;;;8390839;28;19924;-73
2022/04/18 01:16:40;;;;;;;;;;;11.70;30.00;;;;;;8391273;28;19928;-72
2022/04/18 01:20:42;;;;;;;;;;;11.70;30.20;;;;;;8391771;28;19920;-73
2022/04/18 01:29:05;;;;;;;;;;;11.60;30.00;;;;;;8390678;28;19928;-73
2022/04/18 01:33:07;;;;;;;;;;;11.50;30.10;;;;;;8389019;28;19931;-73
2022/04/18 01:37:09;;;;;;;;;;;11.40;30.20;;;;;;8389141;28;19924;-73
2022/04/18 01:41:10;;;;;;;;;;;11.30;30.20;;;;;;8394975;28;19920;-73
2022/04/18 01:45:12;;;;;;;;;;;11.20;30.60;;;;;;8392146;28;19920;-73
2022/04/18 01:49:14;;;;;;;;;;;11.10;31.00;;;;;;8397490;28;19920;-73
2022/04/18 01:53:15;;;;;;;;;;;11.10;31.00;;;;;;8395953;28;20338;-73
2022/04/18 01:57:17;;;;;;;;;;;11.00;30.70;;;;;;8390485;28;19931;-73
2022/04/18 02:01:19;;;;;;;;;;;10.90;30.20;;;;;;8388448;28;19927;-73
2022/04/18 02:05:20;;;;;;;;;;;10.80;31.00;;;;;;8385320;28;20244;-73
2022/04/18 02:09:22;;;;;;;;;;;10.70;31.30;;;;;;8383037;28;19936;-73
2022/04/18 02:13:24;;;;;;;;;;;10.70;31.80;;;;;;8392296;28;19927;-73
2022/04/18 02:17:27;;;;;;;;;;;10.60;31.10;;;;;;8376810;28;19924;-73
2022/04/18 02:21:28;;;;;;;;;;;10.60;31.30;;;;;;8381610;28;19929;-73
2022/04/18 02:25:30;;;;;;;;;;;10.50;31.70;;;;;;8389840;28;20287;-72
2022/04/18 02:29:32;;;;;;;;;;;10.40;31.60;;;;;;8391572;28;19931;-72
2022/04/18 02:33:34;;;;;;;;;;;10.40;31.00;;;;;;8392651;28;19921;-72
2022/04/18 02:37:35;;;;;;;;;;;10.30;31.00;;;;;;8425629;27;19920;-73
2022/04/18 02:41:37;;;;;;;;;;;10.30;31.50;;;;;;8383072;28;20307;-73
2022/04/18 02:45:39;;;;;;;;;;;10.20;31.00;;;;;;8385050;28;20380;-72
2022/04/18 02:49:40;;;;;;;;;;;10.20;31.30;;;;;;8415855;27;20011;-73
2022/04/18 02:53:42;;;;;;;;;;;10.10;31.50;;;;;;8373417;28;19939;-72
2022/04/18 02:57:44;;;;;;;;;;;10.00;31.50;;;;;;8383814;28;19924;-72
2022/04/18 03:01:45;;;;;;;;;;;9.90;32.80;;;;;;8390506;28;19931;-72
2022/04/18 03:05:47;;;;;;;;;;;9.80;32.50;;;;;;8389051;28;19972;-73
2022/04/18 03:09:49;;;;;;;;;;;9.80;32.50;;;;;;8382885;28;19920;-72
2022/04/18 03:13:50;;;;;;;;;;;9.70;32.50;;;;;;8383566;28;19928;-73
2022/04/18 03:17:52;;;;;;;;;;;9.60;32.60;;;;;;8386243;28;19939;-72
2022/04/18 03:21:54;;;;;;;;;;;9.60;32.80;;;;;;8385948;28;20993;-73
2022/04/18 03:25:57;;;;;;;;;;;9.50;33.30;;;;;;8380904;28;19921;-72
2022/04/18 03:29:58;;;;;;;;;;;9.50;32.70;;;;;;8385138;28;19920;-72
2022/04/18 03:34:00;;;;;;;;;;;9.40;32.70;;;;;;8394334;28;19920;-72
2022/04/18 03:42:29;;;;;;;;;;;9.40;32.40;;;;;;8375058;28;19927;-73
2022/04/18 03:46:31;;;;;;;;;;;9.30;32.20;;;;;;8396102;28;19959;-73
2022/04/18 03:50:33;;;;;;;;;;;9.20;32.70;;;;;;8391652;28;19974;-72
2022/04/18 03:54:35;;;;;;;;;;;9.10;32.70;;;;;;8392383;28;19935;-72
2022/04/18 03:58:36;;;;;;;;;;;9.00;32.60;;;;;;8395014;28;19927;-73
2022/04/18 04:02:38;;;;;;;;;;;8.90;32.70;;;;;;8389406;28;19932;-73
2022/04/18 04:06:40;;;;;;;;;;;8.80;32.90;;;;;;8395672;28;19928;-73
2022/04/18 04:10:41;;;;;;;;;;;8.70;33.00;;;;;;8390093;28;20299;-73
2022/04/18 04:14:43;;;;;;;;;;;8.60;33.30;;;;;;8390908;28;19921;-73
2022/04/18 04:18:45;;;;;;;;;;;8.60;33.50;;;;;;8385700;28;19925;-73
2022/04/18 04:22:51;;;;;;;;;;;8.50;33.40;;;;;;8388227;28;19943;-73
2022/04/18 04:26:53;;;;;;;;;;;8.50;33.40;;;;;;8390710;28;19951;-73
2022/04/18 04:30:54;;;;;;;;;;;8.40;33.40;;;;;;8393159;28;19982;-72
2022/04/18 04:34:56;;;;;;;;;;;8.30;33.60;;;;;;8392349;28;19920;-72
2022/04/18 04:38:58;;;;;;;;;;;8.30;33.80;;;;;;8391624;28;19924;-72
2022/04/18 04:42:59;;;;;;;;;;;8.30;34.00;;;;;;8399855;28;19927;-72
2022/04/18 04:47:01;;;;;;;;;;;8.20;33.80;;;;;;8397750;28;19931;-72
2022/04/18 04:51:03;;;;;;;;;;;8.20;33.80;;;;;;8398559;28;20292;-72
2022/04/18 04:55:06;;;;;;;;;;;8.20;34.40;;;;;;8389448;28;19928;-72
2022/04/18 04:59:08;;;;;;;;;;;8.20;34.30;;;;;;8397421;28;19934;-72
2022/04/18 05:03:10;;;;;;;;;;;8.20;34.50;;;;;;8396106;28;19920;-72
2022/04/18 05:07:11;;;;;;;;;;;8.20;34.60;;;;;;8387924;28;19944;-72
2022/04/18 05:11:13;;;;;;;;;;;8.20;34.90;;;;;;8383508;28;19920;-72
2022/04/18 05:15:15;;;;;;;;;;;8.30;35.50;;;;;;8391097;28;20294;-72
2022/04/18 05:19:16;;;;;;;;;;;8.30;36.40;;;;;;8392071;28;19924;-72
2022/04/18 05:23:20;;;;;;;;;;;8.40;36.50;;;;;;8393385;28;19924;-72
2022/04/18 05:27:22;;;;;;;;;;;8.50;36.50;;;;;;8393122;28;19975;-72
2022/04/18 05:31:23;;;;;;;;;;;8.60;36.80;;;;;;8383915;28;19920;-72
2022/04/18 05:35:25;;;;;;;;;;;8.80;38.10;;;;;;8395485;28;20350;-72
2022/04/18 05:39:27;;;;;;;;;;;8.90;37.50;;;;;;8388986;28;19981;-72
2022/04/18 05:43:28;;;;;;;;;;;9.00;37.00;;;;;;8390619;28;19924;-72
2022/04/18 05:47:30;;;;;;;;;;;9.20;38.70;;;;;;8388497;28;19932;-72
2022/04/18 05:51:32;;;;;;;;;;;9.30;37.20;;;;;;8396884;28;19943;-72
2022/04/18 05:55:37;;;;;;;;;;;9.40;37.10;;;;;;8393087;28;19924;-72
2022/04/18 05:59:38;;;;;;;;;;;9.60;37.60;;;;;;8387182;28;19928;-72
2022/04/18 06:03:40;;;;;;;;;;;9.70;37.10;;;;;;8395541;28;19929;-70
2022/04/18 06:07:45;;;;;;;;;;;9.80;39.40;;;;;;8379194;28;20026;-71
2022/04/18 06:11:47;;;;;;;4.95;2.42;;;9.90;38.60;;;;;;8368920;28;19962;-71
2022/04/18 06:15:52;;;;;;;4.15;2.10;;;10.10;36.70;;;;;;8371763;28;20044;-71
2022/04/18 06:19:54;;;;;;;4.28;2.03;;;10.20;35.80;;;;;;8357868;28;20736;-70
2022/04/18 06:23:55;;;;;;;3.70;2.00;;;10.40;37.40;;;;;;8365074;28;20049;-70
2022/04/18 06:27:57;;;;;;;5.00;2.10;;;10.50;36.70;;;;;;8353516;28;20056;-71
2022/04/18 06:31:59;;;;;;;4.05;1.90;;;10.70;36.50;;;;;;8351894;28;20101;-70
2022/04/18 06:36:01;;;;;;;;;;;10.80;38.00;;;;;;8358975;28;20066;-70
2022/04/18 06:40:03;;;;;;;;;;;10.90;37.20;;;;;;8340757;28;19928;-70
2022/04/18 06:44:05;;;;;;;;;;;11.10;37.20;;;;;;8344686;28;19928;-70
2022/04/18 06:48:07;;;;;;;;;;;11.20;39.10;;;;;;8364299;28;19939;-70
2022/04/18 06:52:09;;;;;;;;;;;11.40;38.30;;;;;;8367391;28;20035;-71
2022/04/18 07:00:31;;;;;;;;;;;11.60;38.50;;;;;;8355644;28;19921;-71
2022/04/18 07:04:32;;;;;;;;;;;11.70;39.70;;;;;;8356121;28;19975;-71
2022/04/18 07:08:34;;;;;;;;;;;11.80;39.00;;;;;;8352243;28;19924;-71
2022/04/18 07:12:36;;;;;;;;;;;12.00;39.30;;;;;;8354495;28;20435;-70
2022/04/18 07:16:38;;;;;;;;;;;12.10;37.40;;;;;;8364265;28;19927;-72
2022/04/18 07:20:41;;;;;;;;;;;12.30;39.20;;;;;;8359179;28;20272;-71
2022/04/18 07:24:45;;;;;;;;;;;12.40;39.60;;;;;;8357725;28;19928;-71
2022/04/18 07:28:47;;;;;;;;;;;12.60;38.60;;;;;;8348981;28;19924;-71
2022/04/18 07:32:49;;;;;;;;;;;12.70;38.50;;;;;;8364769;28;19929;-71
2022/04/18 07:36:50;;;;;;;;;;;12.80;39.30;;;;;;8351413;28;19932;-71
2022/04/18 07:40:52;;;;;;;;;;;12.90;38.20;;;;;;8363918;28;19924;-71
2022/04/18 07:44:54;;;;;;;;;;;13.10;41.00;;;;;;8364030;28;19921;-70
2022/04/18 07:48:56;;;;;;;;;;;13.30;39.60;;;;;;8359369;28;19931;-71
2022/04/18 07:52:57;;;;;;;;;;;13.50;40.50;;;;;;8368877;28;19931;-71
2022/04/18 07:56:59;;;;;;;;;;;13.70;40.10;;;;;;8356344;28;19920;-71
2022/04/18 08:01:00;;;;;;;;;;;13.90;39.80;;;;;;8390719;28;19928;-71
2022/04/18 08:05:02;;;;;;;;;;;14.00;40.00;;;;;;8358024;28;20008;-71
2022/04/18 08:09:04;;;;;;;4.10;2.40;;;14.20;39.40;;;;;;8356657;28;19931;-72
2022/04/18 08:13:05;;;;;;;;;;;14.30;39.60;;;;;;8357203;28;20017;-71
2022/04/18 08:17:08;;;;;;;;;;;14.50;40.50;;;;;;8353675;28;19924;-71
2022/04/18 08:21:12;;;;;;;4.20;2.08;;;14.80;40.00;;;;;;8363496;28;19932;-72
2022/04/18 08:25:14;;;;;;;5.90;2.30;;;14.90;39.50;;;;;;8388666;28;20045;-71
2022/04/18 08:29:18;;;;;;;3.60;1.90;;;15.00;40.30;;;;;;8357481;28;20048;-71
2022/04/18 08:33:20;;;;;;;4.25;2.17;;;15.10;39.80;;;;;;8362143;28;20045;-71
2022/04/18 08:37:22;;;;;;;3.58;1.92;;;15.20;40.20;;;;;;8392876;28;20400;-71
2022/04/18 08:41:34;;;;;;;4.53;2.10;;;15.40;40.50;;;;;;8353428;28;20382;-72
2022/04/18 08:45:39;;;;;;;;;;;15.60;41.00;;;;;;8361531;28;20373;-72
2022/04/18 08:54:01;;;;;;;;;;;15.60;40.40;;;;;;8363379;28;20245;-71
2022/04/18 08:58:06;;;;;;;;;;;15.60;40.60;;;;;;8354392;28;20368;-71
2022/04/18 09:02:08;;;;;;;;;;;15.70;40.30;;;;;;8357162;28;20502;-71
2022/04/18 09:06:10;;;;;;;;;;;15.90;40.90;;;;;;8356770;28;20273;-71
2022/04/18 09:10:21;;;;;;;;;;;16.20;41.10;;;;;;8354708;28;19931;-71
2022/04/18 09:14:25;;;;;;;;;;;16.30;41.60;;;;;;8369662;28;20335;-71
2022/04/18 09:18:27;;;;;;;;;;;16.40;41.80;;;;;;8359366;28;19929;-72
2022/04/18 09:22:28;;;;;;;;;;;16.60;41.60;;;;;;8358117;28;19921;-71
2022/04/18 09:26:31;;;;;;;;;;;16.70;41.60;;;;;;8390496;28;20002;-72
2022/04/18 09:30:33;;;;;;;;;;;16.80;41.70;;;;;;8357004;28;19925;-72
2022/04/18 09:34:35;;;;;;;;;;;16.80;41.80;;;;;;8359290;28;20367;-71
2022/04/18 09:38:41;;;;;;;;;;;16.80;41.90;;;;;;8359347;28;20387;-71
2022/04/18 09:42:44;;;;;;;;;;;16.90;41.80;;;;;;8358520;28;19974;-72
2022/04/18 09:46:46;;;;;;;;;;;17.00;42.10;;;;;;8355830;28;19947;-72
2022/04/18 09:50:59;;;;;;;;;;;17.10;43.20;;;;;;8358029;28;20315;-71
2022/04/18 09:55:01;;;;;;;;;;;17.20;43.10;;;;;;8388904;27;19935;-71
2022/04/18 09:59:04;;;;;;;;;;;17.30;42.40;;;;;;8355461;28;19975;-72
2022/04/18 10:03:07;;;;;;;;;;;17.30;41.20;;;;;;8357376;28;20001;-71
2022/04/18 10:07:09;;;;;;;;;;;17.30;40.40;;;;;;8372610;28;19928;-71
2022/04/18 10:11:11;;;;;;;;;;;17.40;40.80;;;;;;8360024;28;19939;-72
2022/04/18 10:15:13;;;;;;;;;;;17.60;40.90;;;;;;8356171;28;19948;-72
2022/04/18 10:19:26;;;;;;;;;;;17.70;41.30;;;;;;8359974;28;20399;-71
2022/04/18 10:23:47;;;;;;;;;;;17.80;41.20;;;;;;8358079;28;19921;-71
2022/04/18 10:27:57;;;;;;;;;;;18.00;41.30;;;;;;8356405;28;20256;-72
2022/04/18 10:32:00;;;;;;;;;;;18.40;41.70;;;;;;8357387;28;20287;-72
2022/04/18 10:36:03;;;;;;;;;;;18.70;42.90;;;;;;8355420;28;20264;-72
2022/04/18 10:40:06;;;;;;;;;;;18.90;44.10;;;;;;8355212;28;20644;-72
2022/04/18 10:44:09;;;;;;;;;;;19.10;44.20;;;;;;8357204;28;20011;-72
2022/04/18 10:48:11;;;;;;;;;;;19.30;46.80;;;;;;8360518;28;19968;-72
2022/04/18 10:52:27;;;;;;;;;;;19.40;47.30;;;;;;8357471;28;20442;-71
2022/04/18 10:56:44;;;;;;;;;;;19.70;48.00;;;;;;8359913;28;19924;-74
2022/04/18 11:00:46;;;;;;;;;;;20.00;49.70;;;;;;8357488;28;19971;-74
2022/04/18 11:04:53;;;;;;;;;;;20.50;51.20;;;;;;8363481;28;19935;-74
2022/04/18 11:08:59;;;;;;;;;;;20.90;53.10;;;;;;8389186;28;19920;-74
2022/04/18 11:13:03;;;;;;;;;;;21.40;54.00;;;;;;8360997;28;20011;-74
2022/04/18 11:17:06;;;;;;;;;;;21.70;55.20;;;;;;8362307;28;20012;-74
2022/04/18 11:21:07;;;;;;;;;;;21.80;55.00;;;;;;8357063;28;19924;-74
2022/04/18 11:25:10;;;;;;;;;;;21.80;52.40;;;;;;8364953;28;19932;-74
2022/04/18 11:29:11;;;;;;;;;;;21.70;48.50;;;;;;8364788;28;19921;-75
2022/04/18 11:33:13;;;;;;;;;;;21.70;48.40;;;;;;8367523;28;19928;-74
2022/04/18 11:37:28;;;;;;;;;;;21.70;50.90;;;;;;8370467;28;20052;-74
2022/04/18 11:41:30;;;;;;;;;;;22.10;53.50;;;;;;8367570;28;19921;-74
2022/04/18 11:45:32;;;;;;;;;;;22.50;55.10;;;;;;8368377;28;19920;-74
2022/04/18 11:49:33;;;;;;;;;;;22.80;56.30;;;;;;8371144;28;19940;-75
2022/04/18 11:53:35;;;;;;;;;;;23.00;53.60;;;;;;8370007;28;20307;-74
2022/04/18 11:57:38;;;;;;;;;;;22.90;51.50;;;;;;8374178;28;19929;-74
2022/04/18 12:06:49;;;;;;;;;;;22.70;52.70;;;;;;8371187;28;19964;-74
2022/04/18 12:10:26;;;;;;;;;;;23.20;54.70;;;;;;8359290;28;19924;-74
2022/04/18 12:14:29;;;;;;;;;;;23.70;57.20;;;;;;8368798;28;20007;-74
2022/04/18 12:18:30;;;;;;;;;;;24.00;55.80;;;;;;8373669;28;19935;-74
2022/04/18 12:22:32;;;;;;;;;;;24.00;56.00;;;;;;8380577;28;19925;-74
2022/04/18 12:26:34;;;;;;;;;;;23.80;55.60;;;;;;8374497;28;19928;-74
2022/04/18 12:30:36;;;;;;;;;;;23.80;53.50;;;;;;8368808;28;20363;-74
2022/04/18 12:34:42;;;;;;;;;;;23.70;50.80;;;;;;8380408;28;19924;-74
2022/04/18 12:38:46;;;;;;;;;;;23.50;48.20;;;;;;8379566;28;19920;-74
2022/04/18 12:42:50;;;;;;;4.07;2.08;;;23.40;46.40;;;;;;8376878;28;20032;-74
2022/04/18 12:46:52;;;;;;;4.45;2.70;;;23.30;44.60;;;;;;8373742;28;20122;-74
2022/04/18 12:50:56;;;;;;;4.80;2.92;;;23.00;42.00;;;;;;8376507;28;20043;-74
2022/04/18 12:55:04;;;;;;;4.57;2.60;;;22.40;41.10;;;;;;8368415;28;20049;-74
2022/04/18 12:59:06;;;;;;;3.92;2.25;;;22.30;41.20;;;;;;8377331;28;20052;-74
2022/04/18 13:03:08;;;;;;;3.80;2.20;;;22.50;41.50;;;;;;8376945;28;20060;-75
2022/04/18 13:07:12;;;;;;;;;;;22.70;41.50;;;;;;8371587;28;20041;-74
2022/04/18 13:11:16;;;;;;;3.60;2.15;;;23.00;42.80;;;;;;8378395;28;20144;-74
2022/04/18 13:15:24;;;;;;;3.95;2.22;;;23.30;46.00;;;;;;8377387;28;21020;-74
2022/04/18 13:19:26;;;;;;;4.23;2.27;;;23.50;47.00;;;;;;8372394;28;20049;-73
2022/04/18 13:23:28;;;;;;;;;;;23.60;46.90;;;;;;8377663;28;19931;-74
2022/04/18 13:27:29;;;;;;;4.22;1.88;;;23.60;45.60;;;;;;8376070;28;19920;-74
2022/04/18 13:31:32;;;;;;;4.30;2.28;;;23.60;44.00;;;;;;8377960;28;20040;-74
2022/04/18 13:39:59;;;;;;;4.60;2.25;;;23.60;41.70;;;;;;8374678;28;20048;-74
2022/04/18 13:44:01;;;;;;;4.20;2.50;;;23.70;41.20;;;;;;8372793;28;20076;-74
2022/04/18 13:48:03;;;;;;;3.80;2.20;;;23.60;40.10;;;;;;8366139;28;20409;-73
2022/04/18 13:52:11;;;;;;;3.97;2.28;;;23.70;39.90;;;;;;8363575;28;20048;-74
2022/04/18 13:56:13;;;;;;;3.70;2.03;;;24.00;40.50;;;;;;8363539;28;20048;-74
2022/04/18 14:00:15;;;;;;;;;;;24.60;42.20;;;;;;8367872;28;20273;-74
2022/04/18 14:04:16;;;;;;;;;;;25.40;45.20;;;;;;8365189;28;19936;-74
2022/04/18 14:08:18;;;;;;;;;;;26.40;50.00;;;;;;8366573;28;19967;-74
2022/04/18 14:12:20;;;;;;;;;;;27.60;55.10;;;;;;8370600;28;19931;-74
2022/04/18 14:20:42;;;;;;;;;;;29.30;56.90;;;;;;8364647;28;19920;-75
2022/04/18 14:24:43;;;;;;;;;;;29.50;55.90;;;;;;8358573;28;19932;-74
2022/04/18 14:28:45;;;;;;;;;;;29.80;55.00;;;;;;8360825;28;19928;-75
2022/04/18 14:32:47;;;;;;;;;;;30.10;55.00;;;;;;8366754;28;20815;-75
2022/04/18 14:36:49;;;;;;;3.33;1.63;;;30.50;54.60;;;;;;8358325;28;19939;-75
2022/04/18 14:40:51;;;;;;;4.88;1.90;;;31.10;54.80;;;;;;8363072;28;20134;-75
2022/04/18 14:44:53;;;;;;;2.58;1.58;;;31.40;53.20;;;;;;8358575;28;20041;-75
2022/04/18 14:48:55;;;;;;;3.50;1.63;;;31.40;53.50;;;;;;8363040;28;20044;-75
2022/04/18 14:52:56;;;;;;;3.00;1.75;;;31.40;52.50;;;;;;8362561;28;20061;-75
2022/04/18 14:56:58;;;;;;;3.90;1.58;;;31.70;52.50;;;;;;8360241;28;20091;-75
2022/04/18 15:01:03;;;;;;;4.10;1.83;;;32.30;53.20;;;;;;8361740;28;20423;-74
2022/04/18 15:05:05;;;;;;;3.38;1.65;;;32.80;52.10;;;;;;8363367;28;20515;-74
2022/04/18 15:09:07;;;;;;;3.38;1.90;;;32.80;50.70;;;;;;8359903;28;20494;-75
2022/04/18 15:13:09;;;;;;;3.40;1.88;;;32.90;50.10;;;;;;8361319;28;20057;-74
2022/04/18 15:17:11;;;;;;;3.25;1.83;;;33.20;50.00;;;;;;8355530;28;20383;-75
2022/04/18 15:21:12;;;;;;;3.50;1.80;;;33.70;50.70;;;;;;8362189;28;20059;-75
2022/04/18 15:25:14;;;;;;;3.35;1.70;;;34.30;50.60;;;;;;8369180;28;20401;-75
2022/04/18 15:29:16;;;;;;;4.43;1.85;;;34.80;50.20;;;;;;8362585;28;20041;-75
2022/04/18 15:33:17;;;;;;;3.00;1.70;;;34.90;48.60;;;;;;8368341;28;20501;-74
2022/04/18 15:37:25;;;;;;;3.85;1.80;;;35.20;47.30;;;;;;8356043;28;20059;-75
2022/04/18 15:41:27;;;;;;;4.18;1.80;;;35.70;46.90;;;;;;8357013;28;20063;-75
2022/04/18 15:45:28;;;;;;;2.88;1.65;;;36.10;46.40;;;;;;8355881;28;20052;-75
2022/04/18 15:49:30;;;;;;;2.58;1.33;;;36.50;45.60;;;;;;8356276;28;20044;-75
2022/04/18 15:53:32;;;;;;;3.22;1.63;;;36.80;44.90;;;;;;8365974;28;20485;-75
2022/04/18 15:57:34;;;;;;;2.95;1.50;;;36.90;44.50;;;;;;8368834;28;20040;-75
2022/04/18 16:01:36;;;;;;;4.50;1.63;;;37.10;43.50;;;;;;8379891;28;20041;-75
2022/04/18 16:05:38;;;;;;;3.25;1.55;;;37.20;42.70;;;;;;8379071;28;20122;-75
2022/04/18 16:09:40;;;;;;;3.40;1.60;;;37.30;41.40;;;;;;8373045;28;20045;-73
2022/04/18 16:13:42;;;;;;;2.95;1.50;;;37.20;40.30;;;;;;8370152;28;20056;-74
2022/04/18 16:17:44;;;;;;;2.85;1.52;;;37.00;39.20;;;;;;8370923;28;20055;-74
2022/04/18 16:21:46;;;;;;;2.40;1.40;;;36.70;38.10;;;;;;8369058;28;20053;-75
2022/04/18 16:25:48;;;;;;;2.58;1.42;;;36.50;37.20;;;;;;8368323;28;20354;-75
2022/04/18 16:34:10;;;;;;;3.10;1.40;;;36.30;35.40;;;;;;8367836;28;20049;-75
2022/04/18 16:38:11;;;;;;;3.10;1.40;;;36.30;34.80;;;;;;8366871;28;20045;-75
2022/04/18 16:46:33;;;;;;;2.80;1.45;;;36.10;33.80;;;;;;8363781;28;20707;-75
2022/04/18 16:50:35;;;;;;;3.40;1.50;;;36.00;33.30;;;;;;8364150;28;20401;-75
2022/04/18 16:54:41;;;;;;;3.70;1.67;;;35.70;32.40;;;;;;8365357;28;20110;-75
2022/04/18 16:58:43;;;;;;;2.83;1.50;;;35.40;31.70;;;;;;8366675;28;20052;-75
2022/04/18 17:02:45;;;;;;;3.22;1.50;;;35.10;31.40;;;;;;8367334;28;20426;-74
2022/04/18 17:06:46;;;;;;;3.55;1.75;;;34.90;31.90;;;;;;8362547;28;20041;-74
2022/04/18 17:10:49;;;;;;;3.28;1.50;;;34.80;30.90;;;;;;8371266;28;20385;-74
2022/04/18 17:14:51;;;;;;;3.85;1.42;;;34.40;30.10;;;;;;8379344;28;20063;-74
2022/04/18 17:18:53;;;;;;;;;;;33.70;29.80;;;;;;8398762;27;20687;-74
2022/04/18 17:22:55;;;;;;;3.45;1.70;;;33.10;29.60;;;;;;8370727;28;19970;-75
2022/04/18 17:26:57;;;;;;;3.58;1.75;;;32.80;29.80;;;;;;8381058;28;20056;-74
2022/04/18 17:30:59;;;;;;;3.03;1.38;;;32.60;29.50;;;;;;8376670;28;20067;-74
2022/04/18 17:35:03;;;;;;;;;;;32.50;29.10;;;;;;8376429;28;20492;-74
2022/04/18 17:39:04;;;;;;;;;;;32.10;29.10;;;;;;8374182;28;19921;-74
2022/04/18 17:43:06;;;;;;;;;;;31.40;29.00;;;;;;8406101;27;20296;-74
2022/04/18 17:47:07;;;;;;;;;;;30.50;28.90;;;;;;8363377;28;19921;-74
2022/04/18 17:51:09;;;;;;;;;;;29.70;28.90;;;;;;8397398;28;19966;-74
2022/04/18 17:59:32;;;;;;;;;;;28.10;28.80;;;;;;8378734;28;20010;-74
2022/04/18 18:03:33;;;;;;;;;;;27.40;28.90;;;;;;8374564;28;20224;-74
2022/04/18 18:07:35;;;;;;;;;;;26.70;29.00;;;;;;8377644;28;20284;-74
2022/04/18 18:11:36;;;;;;;;;;;26.10;29.00;;;;;;8363541;28;19924;-74
2022/04/18 18:15:38;;;;;;;;;;;25.60;29.20;;;;;;8394710;27;20288;-73
2022/04/18 18:19:43;;;;;;;;;;;25.20;29.10;;;;;;8374080;28;19925;-74
2022/04/18 18:23:45;;;;;;;;;;;24.70;29.10;;;;;;8373691;28;19920;-74
2022/04/18 18:27:50;;;;;;;;;;;24.40;29.00;;;;;;8375140;28;19920;-74
2022/04/18 18:31:51;;;;;;;;;;;24.10;29.10;;;;;;8378086;28;19982;-74
2022/04/18 18:35:53;;;;;;;;;;;23.70;29.10;;;;;;8375311;28;19958;-74
2022/04/18 18:39:55;;;;;;;;;;;23.40;29.20;;;;;;8380889;28;19927;-74
2022/04/18 18:43:56;;;;;;;;;;;23.20;29.20;;;;;;8376721;28;19931;-74
2022/04/18 18:47:58;;;;;;;;;;;22.80;29.10;;;;;;8359981;28;19962;-74
2022/04/18 18:56:20;;;;;;;;;;;22.20;29.10;;;;;;8361087;28;19920;-74
2022/04/18 19:00:24;;;;;;;;;;;21.90;29.20;;;;;;8371390;28;19921;-73
2022/04/18 19:04:26;;;;;;;;;;;21.60;29.10;;;;;;8372094;28;19936;-73
2022/04/18 19:08:28;;;;;;;;;;;21.40;29.20;;;;;;8360038;28;19928;-73
2022/04/18 19:12:31;;;;;;;;;;;21.10;29.10;;;;;;8362423;28;20375;-73
2022/04/18 19:26:20;;;;;;;;;;;21.00;29.30;;;;;;8364430;28;19969;-74
2022/04/18 19:29:35;;;;;;;;;;;20.20;29.30;;;;;;8365419;28;19920;-73
2022/04/18 19:33:37;;;;;;;;;;;20.00;29.10;;;;;;8358153;28;19924;-73
2022/04/18 19:37:38;;;;;;;;;;;19.80;29.50;;;;;;8356021;28;19965;-73
2022/04/18 19:41:41;;;;;;;;;;;19.60;29.60;;;;;;8359742;28;19932;-73
2022/04/18 19:45:42;;;;;;;;;;;19.40;29.30;;;;;;8372636;28;19932;-74
2022/04/18 19:49:44;;;;;;;;;;;19.30;29.50;;;;;;8392698;28;19921;-73
2022/04/18 19:53:49;;;;;;;;;;;19.20;29.60;;;;;;8360352;28;19925;-73
2022/04/18 19:57:51;;;;;;;;;;;19.00;29.60;;;;;;8358883;28;19929;-74
2022/04/18 20:01:52;;;;;;;;;;;18.80;29.60;;;;;;8359285;28;19973;-73
2022/04/18 20:05:54;;;;;;;;;;;18.70;29.70;;;;;;8361733;28;19978;-73
2022/04/18 20:09:56;;;;;;;;;;;18.50;29.60;;;;;;8359401;28;19920;-73
2022/04/18 20:13:57;;;;;;;;;;;18.30;29.70;;;;;;8361838;28;20364;-73
2022/04/18 20:18:08;;;;;;;;;;;18.20;29.90;;;;;;8364125;28;20455;-73
2022/04/18 20:22:17;;;;;;;;;;;18.00;29.80;;;;;;8361676;28;19964;-73
2022/04/18 20:26:19;;;;;;;;;;;17.90;29.80;;;;;;8370601;28;20281;-74
2022/04/18 20:30:21;;;;;;;;;;;17.70;29.80;;;;;;8373482;28;19940;-73
2022/04/18 20:34:23;;;;;;;;;;;17.60;29.90;;;;;;8362051;28;19924;-73
2022/04/18 20:38:25;;;;;;;;;;;17.40;29.80;;;;;;8358002;28;19927;-73
2022/04/18 20:42:29;;;;;;;;;;;17.30;30.00;;;;;;8365769;28;19939;-73
2022/04/18 20:46:31;;;;;;;;;;;17.30;30.00;;;;;;8360393;28;19929;-73
2022/04/18 20:50:33;;;;;;;;;;;17.20;30.10;;;;;;8364130;28;19940;-73
2022/04/18 20:59:15;;;;;;;;;;;16.90;30.30;;;;;;8311013;28;20371;-73
2022/04/18 21:03:19;;;;;;;;;;;16.70;30.40;;;;;;8344087;28;19920;-73
2022/04/18 21:07:21;;;;;;;;;;;16.60;30.30;;;;;;8383801;28;19920;-73
2022/04/18 21:11:23;;;;;;;;;;;16.50;30.30;;;;;;8390513;28;19928;-72
2022/04/18 21:15:25;;;;;;;;;;;16.40;30.40;;;;;;8384209;28;20371;-73
2022/04/18 21:19:27;;;;;;;;;;;16.30;30.40;;;;;;8377956;28;20277;-73
2022/04/18 21:23:28;;;;;;;;;;;16.20;30.80;;;;;;8387593;28;20379;-73
2022/04/18 21:27:30;;;;;;;;;;;16.00;30.70;;;;;;8384450;28;19935;-73
2022/04/18 21:31:32;;;;;;;;;;;15.80;30.70;;;;;;8391959;28;19928;-73
2022/04/18 21:35:34;;;;;;;;;;;15.70;31.20;;;;;;8384846;28;19938;-73
2022/04/18 21:39:35;;;;;;;3.70;1.70;;;15.50;30.90;;;;;;8383939;28;20168;-73
2022/04/18 21:43:37;;;;;;;;;;;15.40;30.70;;;;;;8387103;28;19954;-73
2022/04/18 21:47:59;;;;;;;;;;;15.30;30.90;;;;;;8377058;28;20023;-73
2022/04/18 21:52:01;;;;;;;;;;;15.10;30.90;;;;;;8389787;28;19927;-73
2022/04/18 21:56:03;;;;;;;;;;;15.00;31.30;;;;;;8386026;28;20307;-72
2022/04/18 22:00:08;;;;;;;;;;;14.90;31.20;;;;;;8389643;28;19920;-73
2022/04/18 22:04:10;;;;;;;;;;;14.70;30.90;;;;;;8378803;28;19921;-73
2022/04/18 22:08:13;;;;;;;;;;;14.60;31.40;;;;;;8386616;28;20579;-73
2022/04/18 22:12:14;;;;;;;;;;;14.50;31.90;;;;;;8386797;28;19928;-73
2022/04/18 22:16:16;;;;;;;;;;;14.30;31.50;;;;;;8384689;28;19924;-73
2022/04/18 22:24:53;;;;;;;;;;;14.10;31.50;;;;;;8385030;28;19927;-73
2022/04/18 22:28:55;;;;;;;;;;;14.00;31.40;;;;;;8387618;28;20283;-73
2022/04/18 22:32:56;;;;;;;;;;;13.90;31.30;;;;;;8387040;28;20265;-73
2022/04/18 22:36:58;;;;;;;;;;;13.80;31.40;;;;;;8384657;28;19935;-73
2022/04/18 22:41:00;;;;;;;;;;;13.80;31.90;;;;;;8380664;28;22292;-73
2022/04/18 22:45:02;;;;;;;;;;;13.60;31.70;;;;;;8391545;28;19928;-73
2022/04/18 22:49:04;;;;;;;;;;;13.50;31.80;;;;;;8389835;28;20343;-73
2022/04/18 22:53:05;;;;;;;;;;;13.40;31.70;;;;;;8382961;28;19932;-73
2022/04/18 22:57:07;;;;;;;;;;;13.30;31.60;;;;;;8382625;28;19921;-73
2022/04/18 23:01:08;;;;;;;;;;;13.20;31.90;;;;;;8383429;28;19927;-73
2022/04/18 23:09:31;;;;;;;;;;;13.00;32.20;;;;;;8380234;28;20513;-73
2022/04/18 23:13:33;;;;;;;;;;;12.90;32.20;;;;;;8380823;28;20398;-73
2022/04/18 23:17:35;;;;;;;;;;;12.90;32.30;;;;;;8381679;28;19963;-73
2022/04/18 23:21:36;;;;;;;;;;;12.80;32.10;;;;;;8386482;28;19927;-73
2022/04/18 23:25:38;;;;;;;;;;;12.70;32.30;;;;;;8383982;28;19980;-73
2022/04/18 23:29:40;;;;;;;;;;;12.60;32.10;;;;;;8388087;28;19964;-73
2022/04/18 23:33:41;;;;;;;;;;;12.50;32.30;;;;;;8382385;28;19936;-73
2022/04/18 23:37:43;;;;;;;;;;;12.40;32.40;;;;;;8392865;28;19928;-73
2022/04/18 23:41:48;;;;;;;;;;;12.30;32.40;;;;;;8388490;28;19920;-73
2022/04/18 23:45:49;;;;;;;;;;;12.20;32.80;;;;;;8384597;28;20404;-73
2022/04/18 23:49:51;;;;;;;;;;;12.10;33.20;;;;;;8393943;28;19920;-73
2022/04/18 23:53:52;;;;;;;;;;;12.00;33.00;;;;;;8383546;28;19924;-73
2022/04/18 23:57:54;;;;;;;;;;;12.00;32.80;;;;;;8381791;28;20022;-73
